createdAt,value
2023-04-19T00:02:10.646Z,5.23
2023-04-19T00:04:39.280Z,5.27
2023-04-19T00:07:07.717Z,5.87
2023-04-19T00:09:35.911Z,5.50
2023-04-19T00:12:05.763Z,5.80
2023-04-19T00:14:33.942Z,5.57
2023-04-19T00:17:02.212Z,5.30
2023-04-19T00:19:30.540Z,5.70
2023-04-19T00:21:58.786Z,5.87
2023-04-19T00:24:26.942Z,5.77
2023-04-19T00:26:55.223Z,5.53
2023-04-19T00:29:24.825Z,5.80
2023-04-19T00:31:53.075Z,5.73
2023-04-19T00:34:21.265Z,6.00
2023-04-19T00:36:49.404Z,6.30
2023-04-19T00:39:17.543Z,6.90
2023-04-19T00:41:45.728Z,6.43
2023-04-19T00:44:14.079Z,6.73
2023-04-19T00:46:44.694Z,7.00
2023-04-19T00:49:12.963Z,7.20
2023-04-19T00:51:41.204Z,6.33
2023-04-19T00:54:09.678Z,6.83
2023-04-19T00:56:37.873Z,7.27
2023-04-19T00:59:06.069Z,7.47
2023-04-19T01:01:34.907Z,7.53
2023-04-19T01:04:04.936Z,7.93
2023-04-19T01:06:33.376Z,7.50
2023-04-19T01:09:01.589Z,7.43
2023-04-19T01:11:30.233Z,7.67
2023-04-19T01:13:58.638Z,7.97
2023-04-19T01:16:28.098Z,7.93
2023-04-19T01:18:57.037Z,7.33
2023-04-19T01:21:26.618Z,7.20
2023-04-19T01:23:56.180Z,7.60
2023-04-19T01:26:24.334Z,7.70
2023-04-19T01:28:52.513Z,7.13
2023-04-19T01:31:20.880Z,6.73
2023-04-19T01:33:49.055Z,7.83
2023-04-19T01:36:17.229Z,7.80
2023-04-19T01:38:47.729Z,7.20
2023-04-19T01:41:17.404Z,6.80
2023-04-19T01:43:45.555Z,6.97
2023-04-19T01:46:13.688Z,7.30
2023-04-19T01:48:41.870Z,7.10
2023-04-19T01:51:10.041Z,7.37
2023-04-19T01:53:38.190Z,6.60
2023-04-19T01:56:06.969Z,6.73
2023-04-19T01:58:36.757Z,6.87
2023-04-19T02:01:04.959Z,7.07
2023-04-19T02:03:33.266Z,6.20
2023-04-19T02:06:01.554Z,6.53
2023-04-19T02:08:29.693Z,7.00
2023-04-19T02:10:57.889Z,6.70
2023-04-19T02:13:26.083Z,6.90
2023-04-19T02:15:55.628Z,6.70
2023-04-19T02:18:24.114Z,6.80
2023-04-19T02:20:53.395Z,6.83
2023-04-19T02:23:21.556Z,6.97
2023-04-19T02:25:49.716Z,7.03
2023-04-19T02:28:17.901Z,6.67
2023-04-19T02:30:46.244Z,6.67
2023-04-19T02:33:16.425Z,7.63
2023-04-19T02:35:44.644Z,6.50
2023-04-19T02:38:12.825Z,6.93
2023-04-19T02:40:41.011Z,7.03
2023-04-19T02:43:09.174Z,7.00
2023-04-19T02:45:37.412Z,6.73
2023-04-19T02:48:06.429Z,6.70
2023-04-19T02:50:38.733Z,6.77
2023-04-19T02:53:07.018Z,6.67
2023-04-19T02:55:35.258Z,7.13
2023-04-19T02:58:03.469Z,7.40
2023-04-19T03:00:31.763Z,7.10
2023-04-19T03:03:00.860Z,7.20
2023-04-19T03:05:29.374Z,7.53
2023-04-19T03:07:58.985Z,7.17
2023-04-19T03:10:27.335Z,6.60
2023-04-19T03:12:55.591Z,7.07
2023-04-19T03:15:23.785Z,6.67
2023-04-19T03:17:52.144Z,7.33
2023-04-19T03:20:21.125Z,7.33
2023-04-19T03:22:49.336Z,6.43
2023-04-19T03:25:19.098Z,7.23
2023-04-19T03:27:48.156Z,7.33
2023-04-19T03:30:16.554Z,6.70
2023-04-19T03:32:44.797Z,6.63
2023-04-19T03:35:13.028Z,7.27
2023-04-19T03:37:41.209Z,6.97
2023-04-19T03:40:10.177Z,6.80
2023-04-19T03:42:39.732Z,6.70
2023-04-19T03:45:08.746Z,7.63
2023-04-19T03:47:36.941Z,8.87
2023-04-19T03:50:05.545Z,6.77
2023-04-19T03:52:33.821Z,6.63
2023-04-19T03:55:02.118Z,6.87
2023-04-19T03:57:30.551Z,7.00
2023-04-19T04:00:01.505Z,7.07
2023-04-19T04:02:29.847Z,6.90
2023-04-19T04:04:58.365Z,7.10
2023-04-19T04:07:26.824Z,7.93
2023-04-19T04:09:55.016Z,7.90
2023-04-19T04:12:23.208Z,7.73
2023-04-19T04:14:51.438Z,8.27
2023-04-19T04:17:21.125Z,7.53
2023-04-19T04:19:49.366Z,7.90
2023-04-19T04:22:17.973Z,7.60
2023-04-19T04:24:47.329Z,7.93
2023-04-19T04:27:20.233Z,8.37
2023-04-19T04:29:49.562Z,8.13
2023-04-19T04:32:18.271Z,7.50
2023-04-19T04:34:47.873Z,7.63
2023-04-19T04:37:16.356Z,7.80
2023-04-19T04:39:44.741Z,8.00
2023-04-19T04:42:13.566Z,7.83
2023-04-19T04:44:42.202Z,13.93
2023-04-19T04:47:10.353Z,8.97
2023-04-19T04:49:38.505Z,8.70
2023-04-19T04:52:08.706Z,9.10
2023-04-19T04:54:36.926Z,9.00
2023-04-19T04:57:05.324Z,8.93
2023-04-19T04:59:33.671Z,7.63
2023-04-19T05:02:02.009Z,9.00
2023-04-19T05:04:30.217Z,8.70
2023-04-19T05:06:58.503Z,9.27
2023-04-19T05:09:28.132Z,9.30
2023-04-19T05:11:56.361Z,9.13
2023-04-19T05:14:24.649Z,9.23
2023-04-19T05:16:52.816Z,9.13
2023-04-19T05:19:20.973Z,9.27
2023-04-19T05:21:49.714Z,9.13
2023-04-19T05:24:18.244Z,9.17
2023-04-19T05:26:47.997Z,10.40
2023-04-19T05:29:16.162Z,9.23
2023-04-19T05:31:44.474Z,9.20
2023-04-19T05:34:12.662Z,9.07
2023-04-19T05:36:40.807Z,9.67
2023-04-19T05:39:09.467Z,9.37
2023-04-19T05:41:37.641Z,14.47
2023-04-19T05:44:07.268Z,10.77
2023-04-19T05:46:36.308Z,10.30
2023-04-19T05:49:04.798Z,9.50
2023-04-19T05:51:33.001Z,10.13
2023-04-19T05:54:01.961Z,9.77
2023-04-19T05:56:30.526Z,12.00
2023-04-19T05:59:00.861Z,9.50
2023-04-19T06:01:30.484Z,10.13
2023-04-19T06:03:58.791Z,10.67
2023-04-19T06:06:27.673Z,10.77
2023-04-19T06:08:56.165Z,10.37
2023-04-19T06:11:29.188Z,9.93
2023-04-19T06:13:59.880Z,11.10
2023-04-19T06:16:29.557Z,11.57
2023-04-19T06:18:58.022Z,10.87
2023-04-19T06:21:26.986Z,10.50
2023-04-19T06:23:55.152Z,10.93
2023-04-19T06:26:23.315Z,10.80
2023-04-19T06:28:51.517Z,11.27
2023-04-19T06:31:20.036Z,11.53
2023-04-19T06:33:49.715Z,11.43
2023-04-19T06:36:17.942Z,11.53
2023-04-19T06:38:46.357Z,9.83
2023-04-19T06:41:14.831Z,11.50
2023-04-19T06:43:44.717Z,12.27
2023-04-19T06:46:14.066Z,11.93
2023-04-19T06:48:42.478Z,12.00
2023-04-19T06:51:12.100Z,15.13
2023-04-19T06:53:40.275Z,13.27
2023-04-19T06:56:10.075Z,11.63
2023-04-19T06:58:38.276Z,12.17
2023-04-19T07:01:06.611Z,12.00
2023-04-19T07:03:34.976Z,12.10
2023-04-19T07:06:03.226Z,12.07
2023-04-19T07:08:46.302Z,11.77
2023-04-19T07:11:17.260Z,11.47
2023-04-19T07:13:45.435Z,11.80
2023-04-19T07:16:14.688Z,13.17
2023-04-19T07:18:43.904Z,12.93
2023-04-19T07:21:12.138Z,12.57
2023-04-19T07:23:41.797Z,12.50
2023-04-19T07:26:09.992Z,11.93
2023-04-19T07:28:38.132Z,12.80
2023-04-19T07:31:09.417Z,12.17
2023-04-19T07:33:37.669Z,12.87
2023-04-19T07:36:06.606Z,11.93
2023-04-19T07:38:34.849Z,11.17
2023-04-19T07:41:05.288Z,13.53
2023-04-19T07:43:33.481Z,17.93
2023-04-19T07:46:01.742Z,11.80
2023-04-19T07:48:30.317Z,11.20
2023-04-19T07:50:58.606Z,11.67
2023-04-19T07:53:27.586Z,10.67
2023-04-19T07:55:55.847Z,10.88
2023-04-19T07:58:25.512Z,10.90
2023-04-19T08:00:53.693Z,11.57
2023-04-19T08:03:25.171Z,10.40
2023-04-19T08:05:53.796Z,10.48
2023-04-19T08:08:22.197Z,9.80
2023-04-19T08:10:50.453Z,11.97
2023-04-19T08:13:19.125Z,11.47
2023-04-19T08:18:22.883Z,11.77
2023-04-19T08:20:51.191Z,10.97
2023-04-19T08:23:25.801Z,10.93
2023-04-19T08:25:57.846Z,10.63
2023-04-19T08:28:26.050Z,10.03
2023-04-19T08:30:56.098Z,9.53
2023-04-19T08:33:24.248Z,9.33
2023-04-19T08:35:52.612Z,10.17
2023-04-19T08:38:20.955Z,10.00
2023-04-19T08:40:53.227Z,10.23
2023-04-19T08:43:22.396Z,10.63
2023-04-19T08:45:52.454Z,10.27
2023-04-19T08:48:24.181Z,9.43
2023-04-19T08:51:04.345Z,9.13
2023-04-19T08:53:35.830Z,8.97
2023-04-19T08:56:17.509Z,8.57
2023-04-19T09:01:33.840Z,9.13
2023-04-19T09:04:26.470Z,8.70
2023-04-19T09:06:53.948Z,8.52
2023-04-19T09:09:35.354Z,8.48
2023-04-19T09:12:17.898Z,8.70
2023-04-19T09:15:01.125Z,9.02
2023-04-19T09:17:30.618Z,8.15
2023-04-19T09:20:00.334Z,8.30
2023-04-19T09:22:28.761Z,8.20
2023-04-19T09:27:30.094Z,8.35
2023-04-19T09:29:59.519Z,8.02
2023-04-19T09:32:28.728Z,9.00
2023-04-19T09:34:59.624Z,8.43
2023-04-19T09:39:59.744Z,9.15
2023-04-19T09:48:02.546Z,9.18
2023-04-19T09:50:33.468Z,8.48
2023-04-19T09:53:04.558Z,8.55
2023-04-19T09:55:42.306Z,9.35
2023-04-19T09:58:22.252Z,9.00
2023-04-19T10:00:57.183Z,10.85
2023-04-19T10:03:32.269Z,9.05
2023-04-19T10:06:10.536Z,8.32
2023-04-19T10:08:45.362Z,7.97
2023-04-19T10:11:14.248Z,8.98
2023-04-19T10:13:44.075Z,8.70
2023-04-19T10:16:19.420Z,9.10
2023-04-19T10:18:50.082Z,9.30
2023-04-19T10:21:21.678Z,8.25
2023-04-19T10:23:50.370Z,8.00
2023-04-19T10:26:18.590Z,7.47
2023-04-19T10:28:48.554Z,7.97
2023-04-19T10:31:16.867Z,7.28
2023-04-19T10:33:45.153Z,8.25
2023-04-19T10:36:17.739Z,7.57
2023-04-19T10:38:49.283Z,7.72
2023-04-19T10:41:19.032Z,7.55
2023-04-19T10:43:48.788Z,7.05
2023-04-19T10:46:37.214Z,7.50
2023-04-19T10:49:07.906Z,7.57
2023-04-19T10:51:37.468Z,8.45
2023-04-19T10:54:08.484Z,8.70
2023-04-19T10:57:05.327Z,7.75
2023-04-19T10:59:34.960Z,7.82
2023-04-19T11:02:04.864Z,7.30
2023-04-19T11:05:19.140Z,7.72
2023-04-19T11:07:48.538Z,7.40
2023-04-19T11:10:35.968Z,7.15
2023-04-19T11:13:04.661Z,7.18
2023-04-19T11:15:33.262Z,7.47
2023-04-19T11:18:11.917Z,7.25
2023-04-19T11:20:44.357Z,6.78
2023-04-19T11:23:18.182Z,7.57
2023-04-19T11:25:48.624Z,7.82
2023-04-19T11:28:18.527Z,7.43
2023-04-19T11:30:47.389Z,7.88
2023-04-19T11:33:15.680Z,8.38
2023-04-19T11:35:45.525Z,7.82
2023-04-19T11:38:14.909Z,8.15
2023-04-19T11:40:43.142Z,7.90
2023-04-19T11:43:13.019Z,8.00
2023-04-19T11:45:41.991Z,7.25
2023-04-19T11:48:16.173Z,8.00
2023-04-19T11:50:45.771Z,7.95
2023-04-19T11:53:16.274Z,8.40
2023-04-19T11:55:46.356Z,8.13
2023-04-19T11:58:31.140Z,7.70
2023-04-19T12:01:08.606Z,8.82
2023-04-19T12:03:41.836Z,8.27
2023-04-19T12:06:14.281Z,7.95
2023-04-19T12:08:47.210Z,8.70
2023-04-19T12:11:21.553Z,8.10
2023-04-19T12:14:09.444Z,8.32
2023-04-19T12:16:37.715Z,7.30
2023-04-19T12:19:17.688Z,7.90
2023-04-19T12:21:49.073Z,8.60
2023-04-19T12:24:17.919Z,7.45
2023-04-19T12:26:56.243Z,7.82
2023-04-19T12:29:26.263Z,7.55
2023-04-19T12:31:54.653Z,7.85
2023-04-19T12:34:22.898Z,7.60
2023-04-19T12:36:51.314Z,7.15
2023-04-19T12:39:19.776Z,7.13
2023-04-19T12:41:48.924Z,7.28
2023-04-19T12:44:17.565Z,7.00
2023-04-19T12:46:47.193Z,6.50
2023-04-19T12:49:15.574Z,6.50
2023-04-19T12:51:43.942Z,6.50
2023-04-19T12:54:12.214Z,6.75
2023-04-19T12:56:40.378Z,7.20
2023-04-19T12:59:08.624Z,7.50
2023-04-19T13:01:36.937Z,6.60
2023-04-19T13:04:08.045Z,6.70
2023-04-19T13:06:36.404Z,7.30
2023-04-19T13:09:14.041Z,7.68
2023-04-19T13:11:43.065Z,8.05
2023-04-19T13:14:11.276Z,6.82
2023-04-19T13:16:39.677Z,7.40
2023-04-19T13:19:09.393Z,7.60
2023-04-19T13:21:37.650Z,6.53
2023-04-19T13:24:06.647Z,6.45
2023-04-19T13:26:35.638Z,6.82
2023-04-19T13:29:04.306Z,7.28
2023-04-19T13:31:32.630Z,6.95
2023-04-19T13:34:01.593Z,6.70
2023-04-19T13:36:31.327Z,6.72
2023-04-19T13:38:59.758Z,7.00
2023-04-19T13:41:27.959Z,7.05
2023-04-19T13:43:56.289Z,7.38
2023-04-19T13:46:24.960Z,7.10
2023-04-19T13:48:53.165Z,6.95
2023-04-19T13:51:21.433Z,7.50
2023-04-19T13:53:51.306Z,6.82
2023-04-19T13:56:19.562Z,6.88
2023-04-19T13:58:47.838Z,7.30
2023-04-19T14:01:16.275Z,7.57
2023-04-19T14:03:44.820Z,7.28
2023-04-19T14:06:13.127Z,7.03
2023-04-19T14:08:41.306Z,6.88
2023-04-19T14:11:10.959Z,6.72
2023-04-19T14:13:39.202Z,6.53
2023-04-19T14:16:08.191Z,6.63
2023-04-19T14:18:36.462Z,6.28
2023-04-19T14:21:05.089Z,6.72
2023-04-19T14:23:34.564Z,7.00
2023-04-19T14:26:03.105Z,11.18
2023-04-19T14:28:32.764Z,9.85
2023-04-19T14:31:01.004Z,7.50
2023-04-19T14:33:29.287Z,7.18
2023-04-19T14:35:57.478Z,7.18
2023-04-19T14:38:25.649Z,7.18
2023-04-19T14:40:53.842Z,6.53
2023-04-19T14:43:22.128Z,6.72
2023-04-19T14:45:52.226Z,7.03
2023-04-19T14:48:22.240Z,6.55
2023-04-19T14:50:51.120Z,6.40
2023-04-19T14:53:19.358Z,6.80
2023-04-19T14:55:47.571Z,6.97
2023-04-19T14:58:15.780Z,6.22
2023-04-19T15:00:44.074Z,5.85
2023-04-19T15:03:13.814Z,5.65
2023-04-19T15:05:42.208Z,5.90
2023-04-19T15:08:20.169Z,5.95
2023-04-19T15:10:57.712Z,5.95
2023-04-19T15:13:26.017Z,6.18
2023-04-19T15:15:54.246Z,6.32
2023-04-19T15:18:23.850Z,6.45
2023-04-19T15:20:52.098Z,6.63
2023-04-19T15:23:22.363Z,6.53
2023-04-19T15:25:50.901Z,6.22
2023-04-19T15:28:19.145Z,6.20
2023-04-19T15:30:49.199Z,6.35
2023-04-19T15:33:17.451Z,6.55
2023-04-19T15:35:47.035Z,6.32
2023-04-19T15:38:15.240Z,6.47
2023-04-19T15:40:43.414Z,7.13
2023-04-19T15:43:11.602Z,7.10
2023-04-19T15:45:39.775Z,6.30
2023-04-19T15:48:08.238Z,5.60
2023-04-19T15:50:38.132Z,5.13
2023-04-19T15:53:08.816Z,4.10
2023-04-19T15:55:37.638Z,3.35
2023-04-19T15:58:06.401Z,3.70
2023-04-19T16:00:34.599Z,3.90
2023-04-19T16:03:02.990Z,3.95
2023-04-19T16:05:31.271Z,4.72
2023-04-19T16:08:03.911Z,5.03
2023-04-19T16:10:33.776Z,5.07
2023-04-19T16:13:02.134Z,4.30
2023-04-19T16:15:30.311Z,4.05
2023-04-19T16:17:58.647Z,4.13
2023-04-19T16:20:26.933Z,4.35
2023-04-19T16:22:55.157Z,4.78
2023-04-19T16:25:23.739Z,4.82
2023-04-19T16:27:53.305Z,4.50
2023-04-19T16:30:22.250Z,4.35
2023-04-19T16:32:51.142Z,4.38
2023-04-19T16:35:19.359Z,5.35
2023-04-19T16:37:47.531Z,5.00
2023-04-19T16:40:15.914Z,5.43
2023-04-19T16:42:44.179Z,5.15
2023-04-19T16:45:13.870Z,5.75
2023-04-19T16:47:43.883Z,7.30
2023-04-19T16:50:12.923Z,7.80
2023-04-19T16:52:41.217Z,7.10
2023-04-19T16:55:10.017Z,6.75
2023-04-19T16:57:38.260Z,7.00
2023-04-19T17:00:08.108Z,6.85
2023-04-19T17:02:37.898Z,5.50
2023-04-19T17:05:07.339Z,5.60
2023-04-19T17:07:35.617Z,5.90
2023-04-19T17:10:03.878Z,5.50
2023-04-19T17:12:32.083Z,5.22
2023-04-19T17:15:00.317Z,5.32
2023-04-19T17:17:28.620Z,5.30
2023-04-19T17:19:58.197Z,5.78
2023-04-19T17:22:26.360Z,6.65
2023-04-19T17:24:57.322Z,9.73
2023-04-19T17:27:25.615Z,11.95
2023-04-19T17:29:53.857Z,12.68
2023-04-19T17:32:22.407Z,13.10
2023-04-19T17:34:50.667Z,11.48
2023-04-19T17:37:20.213Z,10.82
2023-04-19T17:39:48.386Z,9.52
2023-04-19T17:42:16.574Z,8.93
2023-04-19T17:44:44.768Z,8.98
2023-04-19T17:47:12.946Z,7.80
2023-04-19T17:49:41.140Z,6.88
2023-04-19T17:52:09.331Z,7.47
2023-04-19T17:54:38.991Z,7.30
2023-04-19T17:57:07.479Z,8.68
2023-04-19T17:59:35.917Z,9.65
2023-04-19T18:02:04.190Z,10.07
2023-04-19T18:04:32.487Z,9.70
2023-04-19T18:07:00.831Z,13.63
2023-04-19T18:09:29.036Z,31.93
2023-04-19T18:11:59.099Z,24.87
2023-04-19T18:14:27.307Z,16.98
2023-04-19T18:16:55.509Z,10.50
2023-04-19T18:19:24.021Z,10.17
2023-04-19T18:21:52.199Z,10.18
2023-04-19T18:24:20.455Z,10.07
2023-04-19T18:26:48.624Z,10.77
2023-04-19T18:29:19.298Z,11.10
2023-04-19T18:31:47.673Z,10.47
2023-04-19T18:34:15.976Z,10.77
2023-04-19T18:36:44.136Z,11.70
2023-04-19T18:39:13.300Z,10.47
2023-04-19T18:41:41.477Z,10.47
2023-04-19T18:46:42.198Z,11.20
2023-04-19T18:49:10.417Z,14.57
2023-04-19T18:51:39.954Z,16.03
2023-04-19T18:54:08.220Z,20.17
2023-04-19T18:59:10.118Z,15.20
2023-04-19T19:01:38.362Z,14.10
2023-04-19T19:04:31.729Z,12.87
2023-04-19T19:06:59.256Z,10.55
2023-04-19T19:09:30.761Z,10.60
2023-04-19T19:11:59.189Z,10.73
2023-04-19T19:14:27.383Z,10.77
2023-04-19T19:16:55.668Z,12.55
2023-04-19T19:19:25.464Z,12.17
2023-04-19T19:21:53.788Z,13.85
2023-04-19T19:24:21.953Z,12.90
2023-04-19T19:26:50.279Z,12.30
2023-04-19T19:29:22.308Z,11.70
2023-04-19T19:31:51.101Z,10.55
2023-04-19T19:34:28.757Z,10.63
2023-04-19T19:36:59.766Z,10.87
2023-04-19T19:39:28.212Z,11.00
2023-04-19T19:42:05.984Z,10.87
2023-04-19T19:44:34.778Z,10.93
2023-04-19T19:47:09.327Z,10.43
2023-04-19T19:52:10.973Z,10.50
2023-04-19T19:54:39.183Z,10.43
2023-04-19T19:58:06.924Z,10.40
2023-04-19T19:59:56.747Z,10.77
2023-04-19T20:02:27.012Z,10.85
2023-04-19T20:04:55.621Z,10.07
2023-04-19T20:07:42.542Z,10.20
2023-04-19T20:10:14.754Z,11.00
2023-04-19T20:12:44.426Z,10.43
2023-04-19T20:15:13.473Z,10.60
2023-04-19T20:17:42.338Z,11.47
2023-04-19T20:20:11.683Z,11.37
2023-04-19T20:22:41.279Z,11.52
2023-04-19T20:25:10.101Z,11.07
2023-04-19T20:27:38.244Z,9.87
2023-04-19T20:30:07.869Z,10.50
2023-04-19T20:32:36.561Z,9.53
2023-04-19T20:35:08.335Z,9.43
2023-04-19T20:37:37.681Z,9.40
2023-04-19T20:40:09.583Z,9.43
2023-04-19T20:42:37.751Z,10.32
2023-04-19T20:45:06.852Z,9.40
2023-04-19T20:47:37.391Z,9.82
2023-04-19T20:50:06.848Z,9.53
2023-04-19T20:52:35.198Z,10.90
2023-04-19T20:55:03.373Z,10.37
2023-04-19T20:57:32.907Z,10.77
2023-04-19T21:00:01.358Z,10.90
2023-04-19T21:02:29.924Z,11.20
2023-04-19T21:04:58.512Z,12.33
2023-04-19T21:07:27.009Z,11.47
2023-04-19T21:09:55.457Z,11.05
2023-04-19T21:12:24.049Z,11.23
2023-04-19T21:14:53.877Z,11.37
2023-04-19T21:17:22.988Z,11.57
2023-04-19T21:19:51.218Z,11.52
2023-04-19T21:22:19.411Z,11.80
2023-04-19T21:24:47.786Z,11.30
2023-04-19T21:27:19.412Z,11.30
2023-04-19T21:29:48.238Z,13.88
2023-04-19T21:32:22.483Z,13.10
2023-04-19T21:34:50.805Z,13.70
2023-04-19T21:37:20.436Z,11.23
2023-04-19T21:39:49.547Z,11.82
2023-04-19T21:42:17.854Z,10.95
2023-04-19T21:44:46.110Z,11.68
2023-04-19T21:47:21.893Z,11.57
2023-04-19T21:49:51.437Z,11.43
2023-04-19T21:52:20.171Z,11.38
2023-04-19T21:54:48.793Z,10.85
2023-04-19T21:57:17.677Z,10.63
2023-04-19T21:59:46.028Z,12.02
2023-04-19T22:02:16.396Z,12.07
2023-04-19T22:04:46.470Z,12.23
2023-04-19T22:07:18.177Z,12.38
2023-04-19T22:09:47.715Z,11.95
2023-04-19T22:12:19.686Z,12.13
2023-04-19T22:14:53.892Z,12.32
2023-04-19T22:17:23.156Z,11.90
2023-04-19T22:19:54.255Z,11.77
2023-04-19T22:22:25.934Z,11.93
2023-04-19T22:24:58.088Z,11.90
2023-04-19T22:27:26.864Z,11.70
2023-04-19T22:29:55.240Z,12.15
2023-04-19T22:32:23.614Z,12.25
2023-04-19T22:34:53.399Z,11.52
2023-04-19T22:37:21.544Z,11.40
2023-04-19T22:39:49.850Z,11.40
2023-04-19T22:42:18.207Z,11.30
2023-04-19T22:44:46.575Z,10.68
2023-04-19T22:47:16.512Z,11.32
2023-04-19T22:49:45.149Z,11.10
2023-04-19T22:52:15.087Z,10.63
2023-04-19T22:54:43.508Z,11.63
2023-04-19T22:57:12.115Z,10.82
2023-04-19T22:59:40.543Z,11.18
2023-04-19T23:02:09.044Z,11.38
2023-04-19T23:04:38.048Z,11.20
2023-04-19T23:07:07.116Z,10.80
2023-04-19T23:09:39.210Z,11.00
2023-04-19T23:12:08.400Z,10.57
2023-04-19T23:14:38.462Z,10.55
2023-04-19T23:17:07.421Z,10.15
2023-04-19T23:19:36.792Z,10.13
2023-04-19T23:22:05.133Z,10.73
2023-04-19T23:24:33.416Z,9.93
2023-04-19T23:27:03.436Z,11.15
2023-04-19T23:29:31.956Z,11.23
2023-04-19T23:32:00.376Z,11.20
2023-04-19T23:34:28.777Z,10.25
2023-04-19T23:36:57.603Z,10.70
2023-04-19T23:39:26.111Z,9.35
2023-04-19T23:41:54.355Z,9.57
2023-04-19T23:44:24.117Z,8.70
2023-04-19T23:46:52.511Z,9.60
2023-04-19T23:49:20.863Z,8.43
2023-04-19T23:51:50.484Z,8.97
2023-04-19T23:54:22.535Z,8.53
2023-04-19T23:56:50.935Z,8.17
2023-04-19T23:59:19.963Z,8.03
